Rachel Carson — WDF9370 — position and weather

sailwx.info

Track history (hours):
 
Tides and Currents Weather Stations Pressure Air Temp Water Temp Dewpoint Dewpoint Depression Visibility Wind Speed Wind Dir Waves Ship Positions

Oceanographic research ship Rachel Carson (USA)

Owner: Monterey Bay Aquarium Research Institute, Moss Landing, CA. More information available from US FCC via Universal Licensing System and Coast Guard Vessel Documentation Center.

Last reported at 2017-Jun-22 21:48 UTC. Time now 2017-Jun-24 05:18 UTC.
Position N 36°44' W 122°00'.

Length 42 m; draft 3 m.

Type: Dredging. MMSI: 338415000.

Date/timePositionNaut miles runAvg speedWind from/ knotsBaromVisibWave heightAir tempDewpointWater temp
2017-Jun-22 21:48N 36°44' W 122°00'2 6.1
2017-Jun-22 21:30N 36°43' W 122°02'1 2.2
2017-Jun-22 21:00N 36°42' W 122°03'0 0.2
2017-Jun-22 20:30N 36°42' W 122°03'0 0.2
2017-Jun-22 20:00N 36°42' W 122°03'0 0.2
2017-Jun-22 19:28N 36°42' W 122°03'0 0.1
2017-Jun-22 19:00N 36°42' W 122°03'0 0.1
2017-Jun-22 18:30N 36°42' W 122°03'0 0.1
2017-Jun-22 18:00N 36°42' W 122°03'0 0.3
2017-Jun-22 17:30N 36°42' W 122°03'0 0.1
2017-Jun-22 17:00N 36°42' W 122°03'0 0.6
2017-Jun-22 16:30N 36°42' W 122°03'0 0.1
2017-Jun-22 16:00N 36°42' W 122°03'3 4.8
2017-Jun-22 15:29N 36°43' W 122°00'2 0.1
2017-Jun-21 21:17N 36°45' W 121°59'310.3
2017-Jun-21 21:00N 36°44' W 122°03'5 9.9
2017-Jun-21 20:30N 36°43' W 122°09'2 3.9
2017-Jun-21 20:00N 36°43' W 122°11'0 0.3
2017-Jun-21 19:30N 36°43' W 122°11'0 0.5
2017-Jun-21 19:00N 36°43' W 122°11'0 0.0
2017-Jun-21 18:30N 36°43' W 122°11'0 0.0
2017-Jun-21 18:00N 36°43' W 122°11'0 0.4
2017-Jun-21 17:30N 36°43' W 122°11'0 0.4
2017-Jun-21 17:00N 36°43' W 122°11'0 0.2
2017-Jun-21 16:30N 36°43' W 122°11'3 6.8
2017-Jun-21 16:00N 36°44' W 122°07'7 0.4
2017-Jun-20 22:21N 36°46' W 121°59'1 0.2
2017-Jun-20 18:49N 36°46' W 121°60'0 0.3
2017-Jun-20 18:21N 36°46' W 121°60'0 0.2
2017-Jun-20 17:46N 36°46' W 121°60'1 0.4
2017-Jun-20 16:11N 36°46' W 122°01'1 5.0
2017-Jun-20 16:00N 36°46' W 122°02'  
2017-Jun-14 23:16N 36°44' W 122°02'2 9.6
2017-Jun-14 23:00N 36°43' W 122°05'5 9.4
2017-Jun-14 22:30N 36°42' W 122°10'0 0.8
2017-Jun-14 22:00N 36°42' W 122°11'0 0.2
2017-Jun-14 21:30N 36°42' W 122°11'0 0.4
2017-Jun-14 21:00N 36°42' W 122°11'0 0.8
2017-Jun-14 20:29N 36°43' W 122°11'0 0.0
2017-Jun-14 19:59N 36°43' W 122°11'0 0.2
2017-Jun-14 19:30N 36°43' W 122°11'0 0.2
2017-Jun-14 19:00N 36°43' W 122°11'2 3.3
2017-Jun-14 18:29N 36°41' W 122°10'0 0.5
2017-Jun-14 17:58N 36°41' W 122°10'0 0.6
2017-Jun-14 17:30N 36°41' W 122°10'0 0.0
2017-Jun-14 17:00N 36°41' W 122°10'0 0.0
2017-Jun-14 16:30N 36°41' W 122°10'0 0.3
2017-Jun-14 16:00N 36°41' W 122°10'0 0.8
2017-Jun-14 15:30N 36°42' W 122°10'2 3.9
2017-Jun-14 15:00N 36°42' W 122°08'5 9.1
2017-Jun-14 14:30N 36°44' W 122°03'0 0.0
2017-Jun-13 20:34N 36°44' W 122°03'1 9.9
2017-Jun-13 20:30N 36°44' W 122°03'510.0
2017-Jun-13 20:00N 36°43' W 122°09'2 3.1
2017-Jun-13 19:30N 36°43' W 122°11'0 0.6
2017-Jun-13 19:00N 36°43' W 122°11'0 0.6
2017-Jun-13 18:30N 36°43' W 122°11'0 0.1
2017-Jun-13 18:00N 36°43' W 122°11'0 0.0
2017-Jun-13 17:28N 36°43' W 122°11'0 0.0
2017-Jun-13 16:59N 36°43' W 122°11'0 0.0
2017-Jun-13 16:28N 36°43' W 122°11'0 0.3
2017-Jun-13 16:00N 36°43' W 122°11'0 0.2
2017-Jun-13 15:18N 36°43' W 122°11'3 9.1
2017-Jun-13 14:59N 36°44' W 122°08'  
Track history (hours):
 
Tides and Currents Weather Stations Pressure Air Temp Water Temp Dewpoint Dewpoint Depression Visibility Wind Speed Wind Dir Waves Ship Positions

Oceanographic research ship Rachel Carson (USA)

Owner: Monterey Bay Aquarium Research Institute, Moss Landing, CA. More information available from US FCC via Universal Licensing System and Coast Guard Vessel Documentation Center.

Last reported at 2017-Jun-22 21:48 UTC. Time now 2017-Jun-24 05:18 UTC.
Position N 36°44' W 122°00'.

Length 42 m; draft 3 m.

Type: Dredging. MMSI: 338415000.

Date/timePositionNaut miles runAvg speedWind from/ knotsBaromVisibWave heightAir tempDewpointWater temp
2017-Jun-22 21:48N 36°44' W 122°00'2 6.1
2017-Jun-22 21:30N 36°43' W 122°02'1 2.2
2017-Jun-22 21:00N 36°42' W 122°03'0 0.2
2017-Jun-22 20:30N 36°42' W 122°03'0 0.2
2017-Jun-22 20:00N 36°42' W 122°03'0 0.2
2017-Jun-22 19:28N 36°42' W 122°03'0 0.1
2017-Jun-22 19:00N 36°42' W 122°03'0 0.1
2017-Jun-22 18:30N 36°42' W 122°03'0 0.1
2017-Jun-22 18:00N 36°42' W 122°03'0 0.3
2017-Jun-22 17:30N 36°42' W 122°03'0 0.1
2017-Jun-22 17:00N 36°42' W 122°03'0 0.6
2017-Jun-22 16:30N 36°42' W 122°03'0 0.1
2017-Jun-22 16:00N 36°42' W 122°03'3 4.8
2017-Jun-22 15:29N 36°43' W 122°00'2 0.1
2017-Jun-21 21:17N 36°45' W 121°59'310.3
2017-Jun-21 21:00N 36°44' W 122°03'5 9.9
2017-Jun-21 20:30N 36°43' W 122°09'2 3.9
2017-Jun-21 20:00N 36°43' W 122°11'0 0.3
2017-Jun-21 19:30N 36°43' W 122°11'0 0.5
2017-Jun-21 19:00N 36°43' W 122°11'0 0.0
2017-Jun-21 18:30N 36°43' W 122°11'0 0.0
2017-Jun-21 18:00N 36°43' W 122°11'0 0.4
2017-Jun-21 17:30N 36°43' W 122°11'0 0.4
2017-Jun-21 17:00N 36°43' W 122°11'0 0.2
2017-Jun-21 16:30N 36°43' W 122°11'3 6.8
2017-Jun-21 16:00N 36°44' W 122°07'7 0.4
2017-Jun-20 22:21N 36°46' W 121°59'1 0.2
2017-Jun-20 18:49N 36°46' W 121°60'0 0.3
2017-Jun-20 18:21N 36°46' W 121°60'0 0.2
2017-Jun-20 17:46N 36°46' W 121°60'1 0.4
2017-Jun-20 16:11N 36°46' W 122°01'1 5.0
2017-Jun-20 16:00N 36°46' W 122°02'  
2017-Jun-14 23:16N 36°44' W 122°02'2 9.6
2017-Jun-14 23:00N 36°43' W 122°05'5 9.4
2017-Jun-14 22:30N 36°42' W 122°10'0 0.8
2017-Jun-14 22:00N 36°42' W 122°11'0 0.2
2017-Jun-14 21:30N 36°42' W 122°11'0 0.4
2017-Jun-14 21:00N 36°42' W 122°11'0 0.8
2017-Jun-14 20:29N 36°43' W 122°11'0 0.0
2017-Jun-14 19:59N 36°43' W 122°11'0 0.2
2017-Jun-14 19:30N 36°43' W 122°11'0 0.2
2017-Jun-14 19:00N 36°43' W 122°11'2 3.3
2017-Jun-14 18:29N 36°41' W 122°10'0 0.5
2017-Jun-14 17:58N 36°41' W 122°10'0 0.6
2017-Jun-14 17:30N 36°41' W 122°10'0 0.0
2017-Jun-14 17:00N 36°41' W 122°10'0 0.0
2017-Jun-14 16:30N 36°41' W 122°10'0 0.3
2017-Jun-14 16:00N 36°41' W 122°10'0 0.8
2017-Jun-14 15:30N 36°42' W 122°10'2 3.9
2017-Jun-14 15:00N 36°42' W 122°08'5 9.1
2017-Jun-14 14:30N 36°44' W 122°03'0 0.0
2017-Jun-13 20:34N 36°44' W 122°03'1 9.9
2017-Jun-13 20:30N 36°44' W 122°03'510.0
2017-Jun-13 20:00N 36°43' W 122°09'2 3.1
2017-Jun-13 19:30N 36°43' W 122°11'0 0.6
2017-Jun-13 19:00N 36°43' W 122°11'0 0.6
2017-Jun-13 18:30N 36°43' W 122°11'0 0.1
2017-Jun-13 18:00N 36°43' W 122°11'0 0.0
2017-Jun-13 17:28N 36°43' W 122°11'0 0.0
2017-Jun-13 16:59N 36°43' W 122°11'0 0.0
2017-Jun-13 16:28N 36°43' W 122°11'0 0.3
2017-Jun-13 16:00N 36°43' W 122°11'0 0.2
2017-Jun-13 15:18N 36°43' W 122°11'3 9.1
2017-Jun-13 14:59N 36°44' W 122°08'  

Dump ship's entire track history